Time;durP1;ratioP1;P1;durP2;ratioP2;P2;SDS_P1;SDS_P2;PMS_P1;PMS_P2;Temp;Humidity;BMP_temperature;BMP_pressure;BME280_temperature;BME280_humidity;BME280_pressure;Samples;Min_cycle;Max_cycle;Signal;HPM_P1;HPM_P2
2020/12/21 00:01:18;;;;;;;12.27;7.15;;;;;;;3.59;68.71;101273.56;5018190;28;20053;-52
2020/12/21 00:03:44;;;;;;;11.52;6.13;;;;;;;3.66;68.59;101297.25;5039663;28;20064;-50
2020/12/21 00:06:13;;;;;;;10.00;6.07;;;;;;;3.29;68.44;101227.66;5032161;28;20041;-52
2020/12/21 00:08:39;;;;;;;12.23;6.30;;;;;;;3.50;68.81;101265.91;5058375;28;20088;-55
2020/12/21 00:11:05;;;;;;;10.43;6.32;;;;;;;3.64;68.84;101284.03;5029387;28;20166;-52
2020/12/21 00:13:31;;;;;;;11.13;6.50;;;;;;;3.64;68.65;101270.81;5029006;28;20037;-50
2020/12/21 00:15:56;;;;;;;10.90;6.82;;;;;;;3.64;68.67;101265.50;5011742;28;20038;-50
2020/12/21 00:18:22;;;;;;;10.20;6.65;;;;;;;3.63;68.84;101279.66;5027277;28;20568;-51
2020/12/21 00:20:47;;;;;;;11.63;7.18;;;;;;;3.59;68.83;101267.44;5028994;28;20128;-52
2020/12/21 00:23:13;;;;;;;10.63;6.32;;;;;;;3.56;68.98;101251.63;5028817;28;20432;-53
2020/12/21 00:25:38;;;;;;;11.80;6.75;;;;;;;3.57;68.63;101256.00;5028744;28;20136;-51
2020/12/21 00:28:04;;;;;;;11.85;6.47;;;;;;;3.63;68.71;101271.72;5028541;28;20125;-54
2020/12/21 00:30:29;;;;;;;8.48;5.75;;;;;;;3.62;68.94;101269.97;5033097;28;20031;-54
2020/12/21 00:32:55;;;;;;;10.75;6.40;;;;;;;3.17;68.58;101191.81;5033446;28;20038;-51
2020/12/21 00:35:20;;;;;;;12.45;6.68;;;;;;;3.63;69.21;101281.47;5028396;28;20033;-51
2020/12/21 00:37:46;;;;;;;10.75;6.55;;;;;;;3.56;68.62;101256.91;5028983;28;20033;-52
2020/12/21 00:40:11;;;;;;;10.57;6.28;;;;;;;3.64;68.82;101277.91;5015185;28;20045;-53
2020/12/21 00:42:36;;;;;;;11.02;6.50;;;;;;;3.61;68.47;101270.00;5038972;28;20132;-55
2020/12/21 00:45:04;;;;;;;10.70;6.10;;;;;;;3.65;68.94;101280.50;5019307;28;20033;-54
2020/12/21 00:47:33;;;;;;;11.20;6.72;;;;;;;3.70;68.79;101275.91;5015731;28;20045;-51
2020/12/21 00:49:58;;;;;;;12.98;6.63;;;;;;;3.63;68.66;101273.50;5027362;28;20440;-53
2020/12/21 00:52:24;;;;;;;12.93;6.95;;;;;;;3.62;68.57;101277.03;5028533;28;20033;-51
2020/12/21 00:54:49;;;;;;;10.52;6.35;;;;;;;3.65;68.42;101284.94;5052882;28;20044;-48
2020/12/21 00:57:14;;;;;;;12.20;7.18;;;;;;;3.68;68.40;101282.19;5038003;28;20052;-54
2020/12/21 00:59:52;;;;;;;11.88;6.93;;;;;;;3.69;68.54;101281.28;5012600;28;20070;-51
2020/12/21 01:02:17;;;;;;;14.68;7.40;;;;;;;3.65;68.47;101272.53;5009640;28;20061;-48
2020/12/21 01:04:43;;;;;;;11.38;7.22;;;;;;;3.53;68.70;101271.09;5009362;28;20100;-49
2020/12/21 01:07:08;;;;;;;14.18;6.88;;;;;;;3.60;68.75;101277.09;5009355;28;20037;-54
2020/12/21 01:09:33;;;;;;;11.68;7.22;;;;;;;3.50;69.38;101284.44;5009238;28;20041;-53
2020/12/21 01:11:59;;;;;;;12.82;6.82;;;;;;;3.56;69.35;101278.97;5021194;28;20034;-53
2020/12/21 01:14:24;;;;;;;15.07;7.57;;;;;;;3.61;68.96;101275.31;5008620;28;20034;-55
2020/12/21 01:16:50;;;;;;;16.65;8.05;;;;;;;3.66;69.14;101271.63;5009895;28;20045;-59
2020/12/21 01:19:15;;;;;;;11.68;7.07;;;;;;;3.66;68.51;101268.13;5010051;28;20045;-52
2020/12/21 01:21:41;;;;;;;14.40;7.93;;;;;;;3.51;68.48;101246.44;5012237;28;20564;-51
2020/12/21 01:24:06;;;;;;;11.88;7.28;;;;;;;3.64;68.59;101264.66;5012012;28;20480;-52
2020/12/21 01:26:32;;;;;;;14.73;7.75;;;;;;;3.59;68.59;101268.28;5011726;28;20080;-53
2020/12/21 01:28:57;;;;;;;12.57;7.43;;;;;;;3.59;69.11;101272.72;5011551;28;20049;-51
2020/12/21 01:31:23;;;;;;;13.70;7.93;;;;;;;3.52;69.19;101265.88;5013212;28;20045;-56
2020/12/21 01:33:51;;;;;;;13.65;7.68;;;;;;;3.53;69.32;101279.06;5019336;28;20124;-50
2020/12/21 01:36:18;;;;;;;12.15;7.43;;;;;;;3.54;68.97;101283.44;4994398;28;20037;-49
2020/12/21 01:38:44;;;;;;;14.77;7.90;;;;;;;3.58;69.01;101271.00;5011936;28;20049;-52
2020/12/21 01:41:10;;;;;;;13.73;7.43;;;;;;;3.64;68.99;101280.53;5011635;28;20111;-50
2020/12/21 01:43:35;;;;;;;12.20;7.22;;;;;;;3.63;68.96;101269.06;5013237;28;20569;-49
2020/12/21 01:46:15;;;;;;;13.80;7.55;;;;;;;3.73;69.44;101282.91;4993646;28;20042;-54
2020/12/21 01:48:43;;;;;;;13.15;7.28;;;;;;;3.68;69.08;101277.75;5013198;28;20042;-53
2020/12/21 01:51:24;;;;;;;17.02;7.30;;;;;;;3.71;69.04;101282.09;4994453;28;20489;-48
2020/12/21 01:53:50;;;;;;;12.48;7.10;;;;;;;3.68;68.86;101277.75;5011497;28;20041;-51
2020/12/21 01:56:16;;;;;;;14.60;7.88;;;;;;;3.70;68.94;101281.22;5012557;28;20026;-51
2020/12/21 01:58:43;;;;;;;14.93;7.95;;;;;;;3.75;69.00;101282.91;5017334;28;20516;-51
2020/12/21 02:01:11;;;;;;;12.45;7.20;;;;;;;3.77;68.55;101281.06;5031759;28;20045;-50
2020/12/21 02:03:37;;;;;;;12.45;7.07;;;;;;;3.63;68.76;101257.63;5016864;28;20075;-52
2020/12/21 02:06:03;;;;;;;11.98;7.47;;;;;;;3.76;68.54;101287.28;5025766;28;20120;-53
2020/12/21 02:08:28;;;;;;;12.55;7.18;;;;;;;3.75;68.71;101274.94;5027638;28;20471;-51
2020/12/21 02:10:54;;;;;;;14.13;7.93;;;;;;;3.75;68.31;101278.44;5022894;28;20045;-58
2020/12/21 02:13:20;;;;;;;13.10;7.20;;;;;;;3.76;68.63;101272.22;5022943;28;20033;-54
2020/12/21 02:15:46;;;;;;;14.10;7.60;;;;;;;3.72;68.51;101270.59;5016577;28;20038;-56
2020/12/21 02:18:11;;;;;;;12.15;7.40;;;;;;;3.73;68.33;101286.44;5027716;28;20033;-57
2020/12/21 02:20:37;;;;;;;12.63;7.45;;;;;;;3.72;68.60;101273.25;5008757;28;20041;-57
2020/12/21 02:23:02;;;;;;;12.88;7.43;;;;;;;3.73;68.64;101274.97;5020302;28;20034;-52
2020/12/21 02:25:28;;;;;;;14.32;7.57;;;;;;;3.72;68.72;101270.59;5018835;28;20482;-51
2020/12/21 02:27:53;;;;;;;12.63;7.15;;;;;;;3.72;68.63;101284.69;5008963;28;20034;-51
2020/12/21 02:30:19;;;;;;;11.93;7.35;;;;;;;3.35;68.58;101208.94;5014019;28;20036;-51
2020/12/21 02:32:44;;;;;;;11.60;6.60;;;;;;;3.32;69.12;101210.81;5015859;28;20948;-56
2020/12/21 02:35:10;;;;;;;13.95;7.82;;;;;;;3.34;68.69;101222.22;5021114;28;20041;-53
2020/12/21 02:37:38;;;;;;;12.48;7.10;;;;;;;3.57;68.92;101256.88;5016793;28;20493;-53
2020/12/21 02:40:07;;;;;;;12.65;7.03;;;;;;;3.68;68.52;101276.91;5007714;28;20492;-52
2020/12/21 02:42:33;;;;;;;12.00;7.25;;;;;;;3.61;68.75;101259.41;5025880;28;20324;-57
2020/12/21 02:44:59;;;;;;;14.18;7.75;;;;;;;3.68;69.02;101261.84;5016954;28;20044;-53
2020/12/21 02:47:24;;;;;;;12.98;7.85;;;;;;;3.38;68.58;101208.00;5011800;28;20030;-55
2020/12/21 02:49:49;;;;;;;12.68;7.65;;;;;;;3.57;68.46;101242.78;5025975;28;20492;-55
2020/12/21 02:52:15;;;;;;;16.00;8.98;;;;;;;3.68;68.59;101261.00;5014461;28;20373;-54
2020/12/21 02:54:42;;;;;;;12.55;7.65;;;;;;;3.60;68.11;101247.97;5024681;28;20042;-55
2020/12/21 02:57:08;;;;;;;15.00;8.05;;;;;;;3.71;69.05;101271.50;5002843;28;20037;-56
2020/12/21 02:59:33;;;;;;;12.38;7.07;;;;;;;3.69;68.71;101265.38;5039027;28;20417;-54
2020/12/21 03:01:59;;;;;;;14.77;8.50;;;;;;;3.71;68.45;101272.34;5045885;28;20037;-53
2020/12/21 03:04:24;;;;;;;12.70;7.10;;;;;;;3.71;68.50;101255.63;5046425;28;20045;-54
2020/12/21 03:06:49;;;;;;;13.68;8.07;;;;;;;3.69;68.28;101254.78;5037516;28;20029;-53
2020/12/21 03:09:15;;;;;;;13.38;7.93;;;;;;;3.69;68.33;101250.34;5038976;28;20037;-50
2020/12/21 03:11:45;;;;;;;13.23;7.90;;;;;;;3.59;68.81;101236.50;5031142;28;20037;-56
2020/12/21 03:14:10;;;;;;;13.07;8.07;;;;;;;3.67;68.64;101252.16;5046908;28;20043;-52
2020/12/21 03:16:36;;;;;;;11.68;7.43;;;;;;;3.61;68.63;101243.53;5029852;28;20409;-51
2020/12/21 03:19:01;;;;;;;14.27;8.02;;;;;;;3.61;68.66;101227.63;5020453;28;20045;-52
2020/12/21 03:21:26;;;;;;;12.55;7.70;;;;;;;3.70;68.44;101245.94;5049393;28;20098;-52
2020/12/21 03:23:52;;;;;;;12.10;7.65;;;;;;;3.69;68.47;101246.84;5033340;28;20056;-52
2020/12/21 03:26:17;;;;;;;11.55;7.10;;;;;;;3.63;68.44;101247.88;5016354;28;20025;-52
2020/12/21 03:28:43;;;;;;;12.10;7.53;;;;;;;3.59;68.27;101248.88;5043143;28;20456;-51
2020/12/21 03:31:08;;;;;;;13.27;7.85;;;;;;;3.64;68.54;101246.97;5029850;28;20120;-52
2020/12/21 03:33:34;;;;;;;13.10;7.60;;;;;;;3.66;68.09;101247.78;5029700;28;20128;-52
2020/12/21 03:35:59;;;;;;;13.55;7.85;;;;;;;3.61;68.63;101246.19;5018204;28;20033;-54
2020/12/21 03:38:25;;;;;;;14.25;7.95;;;;;;;3.61;68.05;101236.47;5018160;28;20040;-52
2020/12/21 03:40:50;;;;;;;14.10;8.63;;;;;;;3.29;67.89;101194.09;5041312;28;20045;-52
2020/12/21 03:43:19;;;;;;;13.70;7.68;;;;;;;3.64;68.42;101252.25;5029042;28;20057;-54
2020/12/21 03:45:49;;;;;;;13.07;7.95;;;;;;;3.67;68.37;101253.97;5030151;28;20033;-53
2020/12/21 03:48:14;;;;;;;12.38;7.88;;;;;;;3.63;68.21;101260.28;5029657;28;20029;-50
2020/12/21 03:50:40;;;;;;;12.45;7.80;;;;;;;3.64;68.24;101268.16;5022778;28;20084;-56
2020/12/21 03:53:06;;;;;;;13.50;8.32;;;;;;;3.64;68.47;101254.91;5024672;28;20035;-52
2020/12/21 03:55:31;;;;;;;13.65;8.23;;;;;;;3.37;67.95;101200.94;5035892;28;20044;-54
2020/12/21 03:57:56;;;;;;;14.23;8.35;;;;;;;3.64;68.02;101254.91;5028956;28;20058;-54
2020/12/21 04:00:22;;;;;;;11.48;7.60;;;;;;;3.67;68.10;101261.91;5032905;28;20037;-50
2020/12/21 04:02:47;;;;;;;12.70;7.85;;;;;;;3.66;67.89;101261.03;5021936;28;20124;-50
2020/12/21 04:05:13;;;;;;;12.25;8.10;;;;;;;3.64;67.88;101268.16;5005374;28;20030;-52
2020/12/21 04:07:38;;;;;;;13.50;8.75;;;;;;;3.58;68.38;101263.91;5022130;28;20037;-51
2020/12/21 04:10:06;;;;;;;11.80;7.88;;;;;;;3.67;68.10;101277.81;5045666;28;20029;-48
2020/12/21 04:12:31;;;;;;;13.18;8.77;;;;;;;3.56;67.98;101246.31;5029208;28;20029;-51
2020/12/21 04:14:57;;;;;;;11.80;7.68;;;;;;;3.61;68.14;101254.13;5021590;28;20455;-54
2020/12/21 04:17:22;;;;;;;13.45;8.35;;;;;;;3.62;68.52;101256.75;5033349;28;20480;-53
2020/12/21 04:19:48;;;;;;;12.10;8.30;;;;;;;3.64;67.91;101264.66;5033705;28;20037;-52
2020/12/21 04:22:13;;;;;;;12.50;8.30;;;;;;;3.63;67.87;101261.13;5036116;28;20120;-53
2020/12/21 04:24:39;;;;;;;17.15;8.85;;;;;;;3.56;67.75;101259.56;5028794;28;20086;-52
2020/12/21 04:27:04;;;;;;;13.00;7.93;;;;;;;3.62;68.41;101267.34;5019493;28;20417;-53
2020/12/21 04:29:30;;;;;;;12.50;7.80;;;;;;;3.63;67.66;101262.91;5035713;28;20401;-53
2020/12/21 04:31:55;;;;;;;12.35;7.57;;;;;;;3.61;68.64;101267.38;5032520;28;20039;-50
2020/12/21 04:34:23;;;;;;;13.30;8.65;;;;;;;3.54;67.75;101254.31;5024973;28;20072;-49
2020/12/21 04:36:49;;;;;;;10.77;7.15;;;;;;;3.53;67.63;101246.41;5024137;28;20061;-51
2020/12/21 04:39:14;;;;;;;10.82;7.28;;;;;;;3.63;67.82;101254.97;5038081;28;20069;-51
2020/12/21 04:41:40;;;;;;;11.55;7.63;;;;;;;3.57;67.38;101248.91;5019766;28;20077;-52
2020/12/21 04:44:06;;;;;;;13.30;8.15;;;;;;;3.57;68.07;101263.94;5045014;28;20105;-52
2020/12/21 04:46:32;;;;;;;11.90;7.60;;;;;;;3.56;67.86;101257.78;5028506;28;20033;-54
2020/12/21 04:49:00;;;;;;;11.85;7.90;;;;;;;3.57;68.41;101259.50;5028997;28;20053;-51
2020/12/21 04:51:32;;;;;;;11.98;7.70;;;;;;;3.61;67.93;101256.78;5029090;28;20073;-55
2020/12/21 04:53:58;;;;;;;12.10;8.00;;;;;;;3.52;67.87;101250.84;5022063;28;20053;-52
2020/12/21 04:56:24;;;;;;;10.20;7.75;;;;;;;3.65;67.49;101256.66;5047818;28;20112;-52
2020/12/21 04:58:49;;;;;;;12.98;7.82;;;;;;;3.66;67.68;101249.59;5038619;28;20167;-53
2020/12/21 05:01:15;;;;;;;12.07;7.53;;;;;;;3.64;67.52;101240.81;5041061;28;20046;-53
2020/12/21 05:03:40;;;;;;;11.43;7.53;;;;;;;3.64;67.76;101246.13;5024089;28;20052;-49
2020/12/21 05:06:06;;;;;;;12.30;7.38;;;;;;;3.49;67.68;101237.69;5019627;28;20121;-53
2020/12/21 05:08:32;;;;;;;11.93;8.23;;;;;;;3.57;67.31;101240.97;5047053;28;20032;-53
2020/12/21 05:11:05;;;;;;;11.95;7.95;;;;;;;3.62;67.30;101254.09;5022052;28;20112;-53
2020/12/21 05:13:32;;;;;;;12.70;8.18;;;;;;;3.64;67.27;101264.66;5037772;28;20436;-48
2020/12/21 05:15:59;;;;;;;11.93;8.13;;;;;;;3.62;67.76;101254.09;5030862;28;20126;-56
2020/12/21 05:18:28;;;;;;;11.75;8.10;;;;;;;3.66;67.22;101255.72;5049696;28;20035;-52
2020/12/21 05:20:58;;;;;;;12.45;8.63;;;;;;;3.67;67.23;101248.66;5043161;28;20045;-52
2020/12/21 05:23:23;;;;;;;12.13;7.88;;;;;;;3.67;67.16;101244.22;5058928;28;20029;-54
2020/12/21 05:26:08;;;;;;;11.93;7.97;;;;;;;3.70;67.77;101252.09;5035026;28;20552;-51
2020/12/21 05:28:39;;;;;;;12.50;8.10;;;;;;;3.62;67.45;101256.75;5036630;28;20029;-56
2020/12/21 05:31:11;;;;;;;11.70;7.78;;;;;;;3.64;67.47;101254.06;5020659;28;20609;-52
2020/12/21 05:33:42;;;;;;;10.50;7.72;;;;;;;2.95;67.59;101133.31;5039674;28;20460;-52
2020/12/21 05:36:12;;;;;;;11.88;8.43;;;;;;;3.64;67.56;101254.06;5030936;28;20044;-51
2020/12/21 05:38:41;;;;;;;10.93;7.57;;;;;;;3.61;67.07;101255.00;5044386;28;20101;-52
2020/12/21 05:41:07;;;;;;;10.27;7.10;;;;;;;3.68;67.40;101250.41;5030746;28;20416;-56
2020/12/21 05:43:33;;;;;;;12.73;8.45;;;;;;;3.65;67.26;101247.84;5016721;28;20046;-52
2020/12/21 05:46:06;;;;;;;12.55;8.30;;;;;;;3.28;67.59;101179.13;5044203;28;20048;-57
2020/12/21 05:48:33;;;;;;;12.27;8.32;;;;;;;3.32;66.78;101193.16;5031049;28;20042;-56
2020/12/21 05:51:05;;;;;;;13.90;8.95;;;;;;;3.63;67.22;101254.97;5021717;28;20049;-57
2020/12/21 05:53:34;;;;;;;11.88;8.48;;;;;;;3.55;66.93;101240.16;5037099;28;20511;-54
2020/12/21 05:56:01;;;;;;;12.02;8.45;;;;;;;3.64;67.32;101251.41;5033627;28;20123;-54
2020/12/21 05:58:31;;;;;;;14.48;8.10;;;;;;;3.53;67.21;101236.69;5022909;28;643241;-50
2020/12/21 06:00:59;;;;;;;11.57;7.90;;;;;;;3.13;67.19;101163.66;5022938;28;20177;-49
2020/12/21 06:03:36;;;;;;;11.75;8.43;;;;;;;3.68;66.83;101255.72;5015334;28;20188;-51
2020/12/21 06:06:07;;;;;;;11.60;8.05;;;;;;;3.74;66.57;101250.22;5041829;28;20546;-55
2020/12/21 06:08:35;;;;;;;12.20;8.57;;;;;;;3.72;66.58;101254.69;5031482;28;20432;-54
2020/12/21 06:11:09;;;;;;;12.30;8.13;;;;;;;3.75;66.91;101251.97;5031477;28;20176;-57
2020/12/21 06:13:38;;;;;;;10.50;7.95;;;;;;;3.67;66.61;101249.53;5033454;28;20127;-54
2020/12/21 06:16:06;;;;;;;15.23;8.05;;;;;;;3.76;66.35;101263.44;5013582;28;20064;-54
2020/12/21 06:18:32;;;;;;;11.70;8.77;;;;;;;3.67;66.58;101254.81;5031279;28;20056;-56
2020/12/21 06:20:57;;;;;;;11.05;8.05;;;;;;;3.72;66.13;101246.75;5030961;28;20062;-58
2020/12/21 06:23:30;;;;;;;15.25;8.68;;;;;;;3.79;66.75;101264.19;5031746;28;20163;-56
2020/12/21 06:26:09;;;;;;;12.23;8.40;;;;;;;3.40;66.35;101187.66;5031105;28;20044;-56
2020/12/21 06:28:35;;;;;;;14.05;8.45;;;;;;;3.85;65.94;101273.75;5019623;28;20033;-57
2020/12/21 06:31:18;;;;;;;12.70;8.98;;;;;;;3.83;66.34;101265.84;5032852;28;20132;-59
2020/12/21 06:33:46;;;;;;;14.73;8.77;;;;;;;3.86;66.37;101273.72;5016412;28;20045;-57
2020/12/21 06:36:12;;;;;;;13.95;7.95;;;;;;;3.84;66.52;101277.31;5044339;28;20033;-55
2020/12/21 06:38:45;;;;;;;12.38;8.48;;;;;;;3.78;66.03;101266.91;5030920;28;20036;-54
2020/12/21 06:41:23;;;;;;;12.90;8.20;;;;;;;3.92;66.14;101280.59;5028974;28;20133;-53
2020/12/21 06:43:57;;;;;;;12.63;8.05;;;;;;;3.99;65.88;101270.69;5042512;28;20094;-58
2020/12/21 06:46:24;;;;;;;13.10;7.85;;;;;;;4.10;65.06;101279.19;5034808;28;20512;-53
2020/12/21 06:49:13;;;;;;;12.15;8.00;;;;;;;4.25;65.05;101274.34;5042618;28;20485;-55
2020/12/21 06:51:43;;;;;;;12.13;7.60;;;;;;;4.37;64.09;101281.91;5044561;28;20071;-55
2020/12/21 06:54:10;;;;;;;12.02;7.70;;;;;;;4.29;64.11;101255.63;5032602;28;20133;-58
2020/12/21 06:56:45;;;;;;;11.60;7.82;;;;;;;4.45;63.72;101274.59;5030430;28;20036;-52
2020/12/21 06:59:18;;;;;;;12.43;8.40;;;;;;;4.53;63.50;101276.09;5052878;28;20058;-57
2020/12/21 07:01:46;;;;;;;13.95;8.15;;;;;;;4.53;63.54;101265.50;5030204;28;20095;-57
2020/12/21 07:04:16;;;;;;;12.43;7.90;;;;;;;4.54;63.08;101267.22;5031079;28;20041;-52
2020/12/21 07:06:43;;;;;;;13.60;8.25;;;;;;;4.52;63.14;101266.41;5030377;28;20045;-56
2020/12/21 07:09:11;;;;;;;13.30;7.70;;;;;;;4.43;62.98;101264.94;5035500;28;20033;-55
2020/12/21 07:11:39;;;;;;;12.63;7.43;;;;;;;4.54;63.26;101278.72;5018222;28;20033;-55
2020/12/21 07:14:05;;;;;;;10.95;8.07;;;;;;;4.56;63.46;101286.63;5029612;28;20448;-57
2020/12/21 07:16:30;;;;;;;12.90;8.02;;;;;;;4.54;63.13;101275.19;5030337;28;20056;-54
2020/12/21 07:18:56;;;;;;;10.45;7.50;;;;;;;4.60;63.02;101293.59;5028980;28;20408;-52
2020/12/21 07:21:21;;;;;;;12.32;7.05;;;;;;;4.47;62.68;101271.00;5030113;28;20045;-52
2020/12/21 07:23:47;;;;;;;14.35;7.88;;;;;;;4.51;63.02;101284.13;5030192;28;20033;-51
2020/12/21 07:26:14;;;;;;;10.07;7.60;;;;;;;4.53;63.30;101292.03;5029421;28;20051;-55
2020/12/21 07:28:44;;;;;;;11.70;8.32;;;;;;;4.50;62.83;101295.66;5012119;28;20029;-55
2020/12/21 07:31:11;;;;;;;12.75;8.27;;;;;;;4.47;63.05;101265.72;5029671;28;20488;-60
2020/12/21 07:33:49;;;;;;;10.40;7.10;;;;;;;4.58;62.67;101295.38;5029756;28;20082;-55
2020/12/21 07:36:19;;;;;;;12.68;7.80;;;;;;;4.56;62.77;101281.31;5021251;28;20120;-56
2020/12/21 07:38:45;;;;;;;13.57;8.05;;;;;;;4.59;62.44;101286.53;5028220;28;20492;-59
2020/12/21 07:41:11;;;;;;;10.73;7.72;;;;;;;4.57;63.02;101277.75;5029402;28;20052;-59
2020/12/21 07:43:40;;;;;;;11.25;7.85;;;;;;;4.58;62.70;101283.00;5029878;28;20037;-61
2020/12/21 07:46:11;;;;;;;10.07;7.32;;;;;;;4.48;62.96;101267.44;5029861;28;20526;-62
2020/12/21 07:48:36;;;;;;;11.73;7.38;;;;;;;4.62;62.55;101272.28;5028823;28;20033;-60
2020/12/21 07:51:05;;;;;;;11.77;7.55;;;;;;;4.62;62.93;101275.84;5029232;28;20125;-60
2020/12/21 07:53:37;;;;;;;12.35;7.18;;;;;;;4.61;62.37;101271.44;5029498;28;20491;-58
2020/12/21 07:56:03;;;;;;;12.27;7.90;;;;;;;4.65;62.35;101280.16;5028859;28;20033;-59
2020/12/21 07:58:34;;;;;;;11.27;7.30;;;;;;;4.59;62.62;101260.88;5029150;28;20054;-59
2020/12/21 08:01:00;;;;;;;11.73;7.47;;;;;;;4.63;62.45;101288.19;5029699;28;20235;-61
2020/12/21 08:03:28;;;;;;;11.57;7.95;;;;;;;4.64;62.53;101281.94;5011117;28;20112;-59
2020/12/21 08:06:07;;;;;;;10.93;7.43;;;;;;;4.31;62.84;101213.16;5020317;28;20041;-60
2020/12/21 08:08:33;;;;;;;10.30;7.85;;;;;;;4.65;62.11;101262.47;5029399;28;20060;-61
2020/12/21 08:10:58;;;;;;;11.93;7.45;;;;;;;4.63;62.88;101259.00;5029704;28;20477;-58
2020/12/21 08:13:24;;;;;;;13.05;7.93;;;;;;;4.61;62.51;101252.88;5014973;28;20030;-59
2020/12/21 08:15:50;;;;;;;10.95;7.70;;;;;;;4.73;62.56;101273.69;5028972;28;20508;-57
2020/12/21 08:18:15;;;;;;;12.65;7.63;;;;;;;4.79;62.87;101266.44;5029176;28;20052;-53
2020/12/21 08:20:51;;;;;;;12.35;7.55;;;;;;;4.76;62.43;101272.72;5029401;28;20603;-55
2020/12/21 08:23:30;;;;;;;13.27;8.40;;;;;;;4.77;62.24;101262.97;5013872;28;20029;-55
2020/12/21 08:25:56;;;;;;;10.48;7.38;;;;;;;4.79;62.39;101271.75;5028204;28;20428;-57
2020/12/21 08:28:29;;;;;;;12.05;8.23;;;;;;;4.67;62.65;101247.34;5028957;28;20030;-59
2020/12/21 08:31:20;;;;;;;10.30;7.38;;;;;;;4.79;62.39;101267.31;5027966;28;20057;-57
2020/12/21 08:34:00;;;;;;;12.93;7.80;;;;;;;4.80;62.25;101279.66;5028486;28;20052;-60
2020/12/21 08:36:39;;;;;;;13.55;7.70;;;;;;;4.79;62.34;101269.97;5027930;28;20107;-57
2020/12/21 08:39:09;;;;;;;12.52;8.27;;;;;;;4.78;62.58;101264.69;5029292;28;20543;-58
2020/12/21 08:41:40;;;;;;;11.43;8.02;;;;;;;4.73;62.48;101260.41;5028654;28;20559;-63
2020/12/21 08:44:07;;;;;;;14.05;8.40;;;;;;;4.78;62.58;101254.97;5028905;28;20033;-61
2020/12/21 08:46:33;;;;;;;12.65;8.20;;;;;;;4.87;62.41;101275.03;5028624;28;20033;-57
2020/12/21 08:48:58;;;;;;;12.05;8.05;;;;;;;4.93;62.01;101258.88;5029984;28;20040;-54
2020/12/21 08:51:24;;;;;;;12.80;8.13;;;;;;;4.55;61.85;101184.97;5030108;28;20148;-56
2020/12/21 08:53:50;;;;;;;11.43;8.38;;;;;;;5.03;61.60;101265.59;5027599;28;20080;-58
2020/12/21 08:56:16;;;;;;;11.18;7.60;;;;;;;5.04;61.59;101258.53;5027455;28;20048;-57
2020/12/21 08:58:41;;;;;;;18.27;10.18;;;;;;;5.06;61.46;101258.44;5028409;28;20385;-61
2020/12/21 09:01:07;;;;;;;13.73;8.30;;;;;;;5.06;61.62;101264.63;5028982;28;20037;-61
2020/12/21 09:03:34;;;;;;;12.50;8.35;;;;;;;5.09;61.28;101259.22;5028909;28;20048;-61
2020/12/21 09:05:59;;;;;;;12.13;8.48;;;;;;;4.98;61.32;101256.09;5028350;28;20055;-62
2020/12/21 09:08:25;;;;;;;12.27;8.07;;;;;;;5.01;61.66;101245.34;5027598;28;20124;-63
2020/12/21 09:10:50;;;;;;;14.98;8.88;;;;;;;5.12;61.52;101255.59;5028222;28;20117;-54
2020/12/21 09:13:16;;;;;;;13.07;8.48;;;;;;;4.78;60.92;101191.28;5028785;28;20175;-58
2020/12/21 09:15:41;;;;;;;11.75;7.63;;;;;;;5.25;60.60;101272.81;5010511;28;20041;-57
2020/12/21 09:18:07;;;;;;;13.75;8.40;;;;;;;5.22;61.27;101257.00;5028713;28;20048;-58
2020/12/21 09:20:32;;;;;;;15.38;8.32;;;;;;;5.25;61.08;101269.31;5027297;28;20040;-56
2020/12/21 09:22:58;;;;;;;12.05;7.97;;;;;;;5.21;60.71;101262.38;5028480;28;20037;-60
2020/12/21 09:25:23;;;;;;;12.90;8.32;;;;;;;5.27;60.60;101251.53;5038258;28;20594;-67
2020/12/21 09:27:49;;;;;;;12.55;7.93;;;;;;;5.32;60.04;101270.81;5049336;28;20060;-65
2020/12/21 09:30:14;;;;;;;12.35;7.60;;;;;;;5.37;60.36;101260.06;5049009;28;20074;-64
2020/12/21 09:32:40;;;;;;;12.48;8.07;;;;;;;5.40;60.36;101274.06;5026333;28;20052;-57
2020/12/21 09:35:05;;;;;;;12.65;8.80;;;;;;;5.38;60.09;101246.69;5027962;28;20034;-56
2020/12/21 09:37:31;;;;;;;13.20;8.55;;;;;;;5.50;60.02;101248.03;5026098;28;20029;-70
2020/12/21 09:39:56;;;;;;;12.32;7.97;;;;;;;5.53;59.34;101253.25;5032617;28;20052;-68
2020/12/21 09:42:22;;;;;;;12.82;8.27;;;;;;;5.52;59.59;101246.19;5031587;28;20041;-60
2020/12/21 09:44:50;;;;;;;14.25;8.57;;;;;;;5.46;59.30;101231.38;5031957;28;20083;-56
2020/12/21 09:47:15;;;;;;;12.60;8.75;;;;;;;5.54;59.43;101233.72;5032091;28;20093;-58
2020/12/21 09:49:40;;;;;;;15.75;9.60;;;;;;;5.67;59.23;101247.44;5031210;28;20044;-66
2020/12/21 09:52:06;;;;;;;14.52;8.75;;;;;;;5.69;59.34;101247.38;5032121;28;20076;-64
2020/12/21 09:54:32;;;;;;;14.15;9.38;;;;;;;5.80;59.31;101268.22;5031996;28;20049;-67
2020/12/21 09:56:57;;;;;;;13.82;9.18;;;;;;;5.84;59.33;101265.41;5043647;28;20125;-67
2020/12/21 09:59:23;;;;;;;12.73;8.57;;;;;;;5.44;58.65;101188.06;5025325;28;20483;-67
2020/12/21 10:01:50;;;;;;;14.48;8.82;;;;;;;5.78;59.06;101251.47;5031468;28;20045;-65
2020/12/21 10:04:15;;;;;;;13.50;9.05;;;;;;;5.61;59.00;101242.34;5027926;28;20124;-65
2020/12/21 10:06:46;;;;;;;13.63;9.00;;;;;;;5.65;58.72;101262.53;5030350;28;20156;-64
2020/12/21 10:09:12;;;;;;;14.75;9.80;;;;;;;5.62;59.23;101261.81;5023480;28;21375;-66
2020/12/21 10:11:37;;;;;;;13.27;9.07;;;;;;;5.58;59.14;101245.09;5031624;28;20460;-64
2020/12/21 10:14:03;;;;;;;14.85;9.20;;;;;;;5.67;58.81;101251.88;5031434;28;20037;-60
2020/12/21 10:16:28;;;;;;;13.32;8.60;;;;;;;5.69;58.50;101253.56;5036840;28;20037;-60
2020/12/21 10:18:54;;;;;;;11.55;8.27;;;;;;;5.70;58.68;101251.75;5035901;28;20029;-67
2020/12/21 10:21:19;;;;;;;13.65;8.40;;;;;;;5.28;58.45;101184.22;5059816;28;20527;-57
2020/12/21 10:23:45;;;;;;;16.20;9.35;;;;;;;5.57;58.85;101227.44;5031259;28;20033;-57
2020/12/21 10:26:10;;;;;;;12.13;8.50;;;;;;;5.58;58.63;101230.03;5028028;28;20587;-63
2020/12/21 10:28:35;;;;;;;14.43;8.32;;;;;;;5.66;58.48;101231.53;5030776;28;20090;-63
2020/12/21 10:31:02;;;;;;;14.73;8.90;;;;;;;5.71;58.56;101245.50;5030705;28;20143;-62
2020/12/21 10:33:27;;;;;;;12.63;8.50;;;;;;;5.59;59.04;101245.06;5031116;28;20433;-62
2020/12/21 10:35:52;;;;;;;14.57;8.43;;;;;;;5.54;59.13;101247.00;5031256;28;20041;-64
2020/12/21 10:38:18;;;;;;;13.50;8.73;;;;;;;5.48;59.08;101243.72;5034724;28;20043;-64
2020/12/21 10:40:43;;;;;;;15.60;8.65;;;;;;;5.38;58.65;101227.25;5036906;28;20128;-63
2020/12/21 10:43:09;;;;;;;12.68;8.77;;;;;;;5.39;58.83;101229.00;5033722;28;20417;-62
2020/12/21 10:45:34;;;;;;;15.73;8.80;;;;;;;5.00;59.11;101164.00;5032150;28;20163;-61
2020/12/21 10:48:00;;;;;;;17.38;9.38;;;;;;;5.38;59.26;101238.72;5030541;28;20084;-61
2020/12/21 10:50:25;;;;;;;16.33;8.77;;;;;;;5.40;59.14;101236.03;5030420;28;20393;-64
2020/12/21 10:52:51;;;;;;;13.73;8.48;;;;;;;5.34;59.56;101241.56;5011578;28;20243;-59
2020/12/21 10:55:16;;;;;;;16.15;8.82;;;;;;;5.29;59.09;101233.75;5030676;28;20075;-61
2020/12/21 10:57:42;;;;;;;16.92;9.45;;;;;;;5.32;59.38;101236.31;5030046;28;20495;-64
2020/12/21 11:00:07;;;;;;;18.25;9.10;;;;;;;5.37;58.58;101247.63;5029168;28;20048;-62
2020/12/21 11:02:33;;;;;;;14.05;8.57;;;;;;;5.27;59.17;101224.97;5031332;28;20042;-66
2020/12/21 11:04:59;;;;;;;14.30;8.77;;;;;;;5.35;58.91;101235.34;5035390;28;20037;-61
2020/12/21 11:07:24;;;;;;;12.50;8.57;;;;;;;5.40;59.33;101236.03;5029931;28;20033;-63
2020/12/21 11:09:50;;;;;;;16.08;9.77;;;;;;;5.46;59.06;101225.19;5029786;28;20501;-63
2020/12/21 11:12:15;;;;;;;14.43;8.93;;;;;;;5.51;58.71;101244.47;5029377;28;20132;-64
2020/12/21 11:14:41;;;;;;;14.13;8.57;;;;;;;5.51;58.60;101225.88;5030470;28;20034;-62
2020/12/21 11:17:06;;;;;;;13.73;9.23;;;;;;;5.49;58.94;101227.72;5030157;28;20045;-60
2020/12/21 11:19:32;;;;;;;14.82;9.55;;;;;;;5.53;58.86;101231.97;5031561;28;20141;-59
2020/12/21 11:21:57;;;;;;;14.73;9.45;;;;;;;5.49;58.74;101234.84;5044267;28;20063;-60
2020/12/21 11:24:23;;;;;;;15.25;8.90;;;;;;;5.45;59.12;101239.38;5029037;28;20030;-60